createdAt,value
2019-02-24T00:00:44.318Z,103900.25
2019-02-24T00:03:12.534Z,103889.48
2019-02-24T00:05:41.077Z,103884.26
2019-02-24T00:08:09.739Z,103888.83
2019-02-24T00:10:37.843Z,103891.00
2019-02-24T00:13:06.004Z,103898.77
2019-02-24T00:15:34.753Z,103894.59
2019-02-24T00:18:03.001Z,103893.11
2019-02-24T00:20:31.080Z,103892.19
2019-02-24T00:22:59.527Z,103893.84
2019-02-24T00:25:27.627Z,103890.02
2019-02-24T00:27:55.761Z,103894.59
2019-02-24T00:30:23.995Z,103895.19
2019-02-24T00:32:52.081Z,103891.59
2019-02-24T00:35:20.570Z,103888.61
2019-02-24T00:37:48.949Z,103886.20
2019-02-24T00:40:17.734Z,103887.86
2019-02-24T00:42:46.209Z,103891.02
2019-02-24T00:45:14.508Z,103892.19
2019-02-24T00:47:42.625Z,103896.81
2019-02-24T00:50:10.811Z,103892.91
2019-02-24T00:52:38.864Z,103898.76
2019-02-24T00:55:07.142Z,103908.90
2019-02-24T00:57:35.217Z,103913.91
2019-02-24T01:00:04.264Z,103922.13
2019-02-24T01:02:32.653Z,103925.47
2019-02-24T01:05:00.827Z,103925.83
2019-02-24T01:07:28.990Z,103921.37
2019-02-24T01:09:57.389Z,103911.95
2019-02-24T01:12:25.460Z,103898.53
2019-02-24T01:14:53.542Z,103895.19
2019-02-24T01:17:21.628Z,103894.43
2019-02-24T01:19:49.930Z,103900.66
2019-02-24T01:22:18.135Z,103890.73
2019-02-24T01:24:46.253Z,103889.11
2019-02-24T01:27:14.839Z,103894.00
2019-02-24T01:29:42.910Z,103896.59
2019-02-24T01:32:11.088Z,103891.70
2019-02-24T01:34:39.348Z,103890.13
2019-02-24T01:37:07.427Z,103892.59
2019-02-24T01:39:35.556Z,103891.62
2019-02-24T01:42:04.042Z,103893.72
2019-02-24T01:44:32.176Z,103892.76
2019-02-24T01:47:00.353Z,103895.73
2019-02-24T01:49:28.719Z,103898.34
2019-02-24T01:51:57.194Z,103895.52
2019-02-24T01:54:25.665Z,103891.70
2019-02-24T01:56:53.861Z,103883.62
2019-02-24T01:59:22.128Z,103887.18
2019-02-24T02:01:50.246Z,103880.98
2019-02-24T02:04:18.550Z,103873.06
2019-02-24T02:06:46.918Z,103873.45
2019-02-24T02:09:15.087Z,103865.67
2019-02-24T02:11:43.320Z,103871.44
2019-02-24T02:14:11.403Z,103869.66
2019-02-24T02:16:39.518Z,103875.18
2019-02-24T02:19:07.582Z,103874.19
2019-02-24T02:21:35.836Z,103879.02
2019-02-24T02:24:04.062Z,103871.03
2019-02-24T02:26:32.241Z,103872.67
2019-02-24T02:29:00.589Z,103861.37
2019-02-24T02:31:28.637Z,103856.84
2019-02-24T02:33:56.796Z,103858.83
2019-02-24T02:36:24.915Z,103863.55
2019-02-24T02:38:53.612Z,103870.77
2019-02-24T02:41:21.760Z,103866.19
2019-02-24T02:43:49.842Z,103860.91
2019-02-24T02:46:18.175Z,103855.17
2019-02-24T02:48:46.330Z,103848.17
2019-02-24T02:51:14.376Z,103844.86
2019-02-24T02:53:42.777Z,103838.68
2019-02-24T02:56:13.028Z,103836.56
2019-02-24T02:58:41.029Z,103840.58
2019-02-24T03:01:09.218Z,103843.50
2019-02-24T03:03:38.121Z,103835.25
2019-02-24T03:06:44.765Z,103843.19
2019-02-24T03:09:13.165Z,103841.14
2019-02-24T03:11:41.712Z,103842.12
2019-02-24T03:14:09.775Z,103837.13
2019-02-24T03:16:37.892Z,103838.70
2019-02-24T03:19:06.000Z,103843.23
2019-02-24T03:21:34.099Z,103845.62
2019-02-24T03:24:02.228Z,103853.16
2019-02-24T03:26:30.399Z,103853.02
2019-02-24T03:29:04.129Z,103856.64
2019-02-24T03:31:28.719Z,103854.37
2019-02-24T03:33:57.005Z,103854.91
2019-02-24T03:36:25.096Z,103850.42
2019-02-24T03:38:53.805Z,103843.06
2019-02-24T03:41:22.026Z,103849.59
2019-02-24T03:43:50.186Z,103849.42
2019-02-24T03:46:18.767Z,103848.30
2019-02-24T03:48:46.959Z,103846.34
2019-02-24T03:51:15.031Z,103837.84
2019-02-24T03:53:43.433Z,103834.65
2019-02-24T03:56:11.534Z,103831.20
2019-02-24T03:58:39.666Z,103838.31
2019-02-24T04:01:07.767Z,103837.92
2019-02-24T04:03:36.371Z,103829.42
2019-02-24T04:06:04.473Z,103829.91
2019-02-24T04:08:32.582Z,103826.36
2019-02-24T04:11:01.260Z,103827.18
2019-02-24T04:13:29.328Z,103824.94
2019-02-24T04:15:57.536Z,103824.24
2019-02-24T04:18:25.891Z,103814.45
2019-02-24T04:20:53.966Z,103819.12
2019-02-24T04:23:22.423Z,103818.34
2019-02-24T04:25:50.771Z,103817.09
2019-02-24T04:28:18.849Z,103816.20
2019-02-24T04:30:47.048Z,103818.56
2019-02-24T04:33:15.143Z,103824.55
2019-02-24T04:35:43.276Z,103828.69
2019-02-24T04:38:11.312Z,103831.12
2019-02-24T04:40:39.514Z,103839.11
2019-02-24T04:43:07.732Z,103838.55
2019-02-24T04:45:35.835Z,103835.41
2019-02-24T04:48:03.996Z,103835.96
2019-02-24T04:50:32.356Z,103827.38
2019-02-24T04:53:00.428Z,103828.23
2019-02-24T04:55:28.644Z,103838.13
2019-02-24T04:57:56.782Z,103837.70
2019-02-24T05:00:24.915Z,103844.69
2019-02-24T05:02:53.720Z,103841.48
2019-02-24T05:05:21.829Z,103844.52
2019-02-24T05:07:50.043Z,103844.73
2019-02-24T05:10:18.368Z,103839.20
2019-02-24T05:12:46.517Z,103833.97
2019-02-24T05:15:14.568Z,103836.33
2019-02-24T05:17:43.013Z,103836.17
2019-02-24T05:20:11.105Z,103840.36
2019-02-24T05:22:39.190Z,103842.06
2019-02-24T05:25:08.074Z,103840.53
2019-02-24T05:27:36.189Z,103845.13
2019-02-24T05:30:04.623Z,103846.08
2019-02-24T05:32:32.892Z,103841.27
2019-02-24T05:35:02.038Z,103823.61
2019-02-24T05:37:30.188Z,103818.63
2019-02-24T05:39:58.320Z,103816.89
2019-02-24T05:42:26.681Z,103822.95
2019-02-24T05:44:54.887Z,103824.98
2019-02-24T05:47:23.061Z,103823.43
2019-02-24T05:49:52.010Z,103828.39
2019-02-24T05:52:20.075Z,103827.70
2019-02-24T05:54:48.204Z,103815.25
2019-02-24T05:57:16.631Z,103810.64
2019-02-24T05:59:54.728Z,103801.97
2019-02-24T06:02:15.318Z,103805.34
2019-02-24T06:04:43.695Z,103813.88
2019-02-24T06:07:12.156Z,103815.33
2019-02-24T06:09:40.277Z,103824.11
2019-02-24T06:12:08.787Z,103831.52
2019-02-24T06:14:36.904Z,103828.88
2019-02-24T06:17:05.030Z,103834.38
2019-02-24T06:19:33.348Z,103830.49
2019-02-24T06:22:01.594Z,103827.30
2019-02-24T06:24:29.707Z,103826.95
2019-02-24T06:26:57.836Z,103837.68
2019-02-24T06:29:26.352Z,103850.06
2019-02-24T06:31:54.421Z,103861.02
2019-02-24T06:34:22.598Z,103872.94
2019-02-24T06:36:51.949Z,103874.36
2019-02-24T06:39:20.372Z,103867.39
2019-02-24T06:41:48.514Z,103875.48
2019-02-24T06:44:16.947Z,103873.00
2019-02-24T06:46:45.119Z,103867.28
2019-02-24T06:49:13.531Z,103856.91
2019-02-24T06:51:42.003Z,103860.57
2019-02-24T06:54:10.703Z,103859.61
2019-02-24T06:56:38.840Z,103859.63
2019-02-24T06:59:07.872Z,103861.08
2019-02-24T07:01:36.408Z,103864.49
2019-02-24T07:04:04.522Z,103863.16
2019-02-24T07:06:32.861Z,103866.80
2019-02-24T07:09:01.323Z,103889.68
2019-02-24T07:11:29.375Z,103905.19
2019-02-24T07:13:57.517Z,103917.23
2019-02-24T07:16:25.618Z,103920.31
2019-02-24T07:18:54.001Z,103917.04
2019-02-24T07:21:22.683Z,103914.47
2019-02-24T07:23:50.966Z,103910.80
2019-02-24T07:26:19.031Z,103911.30
2019-02-24T07:28:48.090Z,103910.95
2019-02-24T07:31:16.388Z,103914.20
2019-02-24T07:33:44.485Z,103907.26
2019-02-24T07:36:12.589Z,103901.91
2019-02-24T07:38:40.675Z,103905.81
2019-02-24T07:41:09.301Z,103905.97
2019-02-24T07:43:38.385Z,103913.63
2019-02-24T07:46:06.573Z,103921.30
2019-02-24T07:48:35.144Z,103918.44
2019-02-24T07:51:03.236Z,103922.70
2019-02-24T07:53:31.364Z,103919.45
2019-02-24T07:55:59.864Z,103928.11
2019-02-24T07:58:28.538Z,103925.44
2019-02-24T08:00:56.604Z,103918.00
2019-02-24T08:03:25.019Z,103922.06
2019-02-24T08:05:53.360Z,103926.74
2019-02-24T08:08:21.469Z,103930.10
2019-02-24T08:10:49.863Z,103932.77
2019-02-24T08:13:17.919Z,103935.75
2019-02-24T08:15:46.056Z,103927.88
2019-02-24T08:18:14.836Z,103922.83
2019-02-24T08:20:42.971Z,103927.14
2019-02-24T08:23:11.140Z,103931.73
2019-02-24T08:25:39.307Z,103936.61
2019-02-24T08:28:07.417Z,103937.52
2019-02-24T08:30:41.520Z,103939.04
2019-02-24T08:33:06.025Z,103934.33
2019-02-24T08:35:34.096Z,103933.20
2019-02-24T08:38:02.184Z,103922.35
2019-02-24T08:40:30.631Z,103919.08
2019-02-24T08:42:58.790Z,103918.89
2019-02-24T08:45:29.572Z,103921.34
2019-02-24T08:47:57.662Z,103929.91
2019-02-24T08:50:25.901Z,103926.21
2019-02-24T08:52:56.910Z,103930.36
2019-02-24T08:55:25.049Z,103923.93
2019-02-24T08:57:53.360Z,103911.62
2019-02-24T09:00:21.799Z,103915.75
2019-02-24T09:02:50.197Z,103928.00
2019-02-24T09:05:18.285Z,103927.84
2019-02-24T09:07:46.686Z,103926.59
2019-02-24T09:10:15.088Z,103928.83
2019-02-24T09:12:43.614Z,103926.11
2019-02-24T09:15:11.729Z,103923.21
2019-02-24T09:17:39.844Z,103918.69
2019-02-24T09:20:08.873Z,103926.83
2019-02-24T09:22:36.958Z,103933.23
2019-02-24T09:25:05.310Z,103929.36
2019-02-24T09:27:33.422Z,103933.09
2019-02-24T09:30:01.712Z,103932.84
2019-02-24T09:32:29.846Z,103932.46
2019-02-24T09:34:57.950Z,103931.41
2019-02-24T09:37:26.499Z,103927.45
2019-02-24T09:39:54.919Z,103921.37
2019-02-24T09:42:22.963Z,103927.78
2019-02-24T09:44:51.201Z,103935.45
2019-02-24T09:47:19.322Z,103947.97
2019-02-24T09:49:47.604Z,103943.53
2019-02-24T09:52:15.713Z,103942.15
2019-02-24T09:54:44.131Z,103931.83
2019-02-24T09:57:12.233Z,103935.77
2019-02-24T09:59:40.854Z,103931.25
2019-02-24T10:02:09.018Z,103941.97
2019-02-24T10:04:37.102Z,103944.20
2019-02-24T10:07:05.176Z,103943.66
2019-02-24T10:09:33.575Z,103946.53
2019-02-24T10:12:01.766Z,103942.56
2019-02-24T10:14:30.150Z,103937.78
2019-02-24T10:16:58.230Z,103940.17
2019-02-24T10:19:26.511Z,103930.86
2019-02-24T10:21:54.692Z,103928.54
2019-02-24T10:24:22.726Z,103931.41
2019-02-24T10:26:51.415Z,103934.44
2019-02-24T10:29:19.627Z,103936.41
2019-02-24T10:31:47.903Z,103938.37
2019-02-24T10:34:16.246Z,103936.23
2019-02-24T10:36:44.710Z,103935.98
2019-02-24T10:39:13.150Z,103930.59
2019-02-24T10:41:41.335Z,103930.95
2019-02-24T10:44:09.857Z,103933.42
2019-02-24T10:46:37.986Z,103934.28
2019-02-24T10:49:06.580Z,103941.39
2019-02-24T10:51:34.979Z,103947.66
2019-02-24T10:54:03.157Z,103953.42
2019-02-24T10:56:31.337Z,103951.22
2019-02-24T10:58:59.570Z,103950.20
2019-02-24T11:01:29.846Z,103948.00
2019-02-24T11:03:59.951Z,103948.56
2019-02-24T11:06:28.019Z,103951.84
2019-02-24T11:08:59.017Z,103942.31
2019-02-24T11:11:27.594Z,103945.30
2019-02-24T11:13:56.053Z,103951.82
2019-02-24T11:16:24.480Z,103949.11
2019-02-24T11:18:52.605Z,103947.75
2019-02-24T11:21:20.781Z,103946.62
2019-02-24T11:23:49.368Z,103955.86
2019-02-24T11:26:17.570Z,103954.23
2019-02-24T11:28:45.756Z,103954.49
2019-02-24T11:31:14.150Z,103956.42
2019-02-24T11:33:42.216Z,103965.05
2019-02-24T11:36:10.432Z,103957.38
2019-02-24T11:38:38.668Z,103951.59
2019-02-24T11:41:06.847Z,103948.54
2019-02-24T11:43:34.923Z,103946.35
2019-02-24T11:46:03.958Z,103945.77
2019-02-24T11:48:32.097Z,103933.02
2019-02-24T11:51:00.283Z,103933.02
2019-02-24T11:53:28.503Z,103930.78
2019-02-24T11:55:56.665Z,103933.77
2019-02-24T11:58:24.753Z,103915.26
2019-02-24T12:00:52.932Z,103909.50
2019-02-24T12:03:21.027Z,103909.98
2019-02-24T12:05:49.509Z,103919.22
2019-02-24T12:08:17.596Z,103919.02
2019-02-24T12:10:45.685Z,103922.02
2019-02-24T12:13:13.798Z,103928.19
2019-02-24T12:15:42.317Z,103919.34
2019-02-24T12:18:10.465Z,103934.05
2019-02-24T12:20:38.707Z,103923.94
2019-02-24T12:23:06.796Z,103919.76
2019-02-24T12:25:34.881Z,103912.14
2019-02-24T12:28:03.014Z,103903.34
2019-02-24T12:30:31.120Z,103893.66
2019-02-24T12:32:59.900Z,103893.45
2019-02-24T12:35:28.135Z,103881.14
2019-02-24T12:37:56.357Z,103879.23
2019-02-24T12:40:24.558Z,103887.13
2019-02-24T12:42:54.539Z,103888.59
2019-02-24T12:45:22.864Z,103875.95
2019-02-24T12:47:51.252Z,103875.73
2019-02-24T12:50:20.488Z,103873.59
2019-02-24T12:52:48.586Z,103872.69
2019-02-24T12:55:16.660Z,103878.62
2019-02-24T12:57:44.889Z,103880.00
2019-02-24T13:00:16.635Z,103883.55
2019-02-24T13:02:44.814Z,103877.50
2019-02-24T13:05:13.206Z,103887.41
2019-02-24T13:07:41.287Z,103883.94
2019-02-24T13:10:11.769Z,103881.35
2019-02-24T13:12:39.837Z,103872.05
2019-02-24T13:15:08.495Z,103874.77
2019-02-24T13:17:36.918Z,103879.93
2019-02-24T13:20:06.491Z,103882.62
2019-02-24T13:22:35.265Z,103875.66
2019-02-24T13:25:03.485Z,103875.05
2019-02-24T13:27:32.109Z,103880.06
2019-02-24T13:30:00.296Z,103877.11
2019-02-24T13:32:28.984Z,103866.06
2019-02-24T13:34:57.040Z,103860.40
2019-02-24T13:37:25.131Z,103859.98
2019-02-24T13:39:54.099Z,103861.99
2019-02-24T13:42:22.211Z,103849.84
2019-02-24T13:44:50.600Z,103841.88
2019-02-24T13:47:18.818Z,103847.59
2019-02-24T13:49:47.888Z,103838.61
2019-02-24T13:52:16.059Z,103840.50
2019-02-24T13:54:44.191Z,103833.19
2019-02-24T13:57:12.789Z,103836.67
2019-02-24T13:59:41.781Z,103836.26
2019-02-24T14:02:10.596Z,103839.99
2019-02-24T14:04:38.702Z,103846.41
2019-02-24T14:07:06.874Z,103845.00
2019-02-24T14:09:35.095Z,103856.63
2019-02-24T14:12:03.483Z,103852.03
2019-02-24T14:14:31.643Z,103846.27
2019-02-24T14:16:59.787Z,103848.02
2019-02-24T14:19:28.168Z,103848.98
2019-02-24T14:21:56.297Z,103843.66
2019-02-24T14:24:24.394Z,103847.58
2019-02-24T14:26:54.321Z,103848.06
2019-02-24T14:29:22.448Z,103846.23
2019-02-24T14:31:50.652Z,103847.00
2019-02-24T14:34:18.769Z,103850.51
2019-02-24T14:36:46.857Z,103845.27
2019-02-24T14:39:15.537Z,103840.53
2019-02-24T14:41:43.689Z,103834.28
2019-02-24T14:44:12.177Z,103837.33
2019-02-24T14:46:40.266Z,103840.16
2019-02-24T14:49:08.529Z,103838.15
2019-02-24T14:51:36.614Z,103840.48
2019-02-24T14:54:04.766Z,103838.89
2019-02-24T14:56:32.918Z,103840.95
2019-02-24T14:59:01.109Z,103845.00
2019-02-24T15:01:29.184Z,103837.33
2019-02-24T15:03:57.593Z,103837.44
2019-02-24T15:06:25.977Z,103832.03
2019-02-24T15:08:54.090Z,103833.77
2019-02-24T15:11:22.180Z,103835.09
2019-02-24T15:13:50.263Z,103840.04
2019-02-24T15:16:18.394Z,103840.59
2019-02-24T15:18:46.477Z,103842.97
2019-02-24T15:21:14.597Z,103842.88
2019-02-24T15:23:43.141Z,103838.32
2019-02-24T15:26:11.225Z,103839.84
2019-02-24T15:28:39.303Z,103838.52
2019-02-24T15:31:07.778Z,103840.59
2019-02-24T15:33:35.827Z,103845.56
2019-02-24T15:36:03.907Z,103838.43
2019-02-24T15:38:32.097Z,103843.73
2019-02-24T15:41:00.176Z,103842.34
2019-02-24T15:43:28.400Z,103837.98
2019-02-24T15:45:56.548Z,103831.95
2019-02-24T15:48:24.637Z,103833.75
2019-02-24T15:50:53.028Z,103837.06
2019-02-24T15:53:21.571Z,103836.37
2019-02-24T15:55:49.711Z,103840.87
2019-02-24T15:58:18.031Z,103843.52
2019-02-24T16:00:46.371Z,103840.87
2019-02-24T16:03:14.594Z,103845.86
2019-02-24T16:05:42.672Z,103856.70
2019-02-24T16:08:11.484Z,103853.30
2019-02-24T16:10:39.589Z,103852.38
2019-02-24T16:13:16.482Z,103844.48
2019-02-24T16:15:37.724Z,103851.09
2019-02-24T16:18:05.871Z,103849.57
2019-02-24T16:20:34.125Z,103847.27
2019-02-24T16:23:02.216Z,103855.98
2019-02-24T16:25:30.395Z,103859.17
2019-02-24T16:27:58.898Z,103859.08
2019-02-24T16:30:26.999Z,103848.83
2019-02-24T16:32:55.141Z,103845.11
2019-02-24T16:35:23.271Z,103848.75
2019-02-24T16:37:51.312Z,103852.92
2019-02-24T16:40:19.483Z,103851.05
2019-02-24T16:42:47.579Z,103851.61
2019-02-24T16:45:17.500Z,103855.70
2019-02-24T16:47:45.574Z,103851.95
2019-02-24T16:50:15.086Z,103854.17
2019-02-24T16:52:43.492Z,103849.30
2019-02-24T16:55:12.419Z,103838.40
2019-02-24T16:57:40.637Z,103848.26
2019-02-24T17:00:15.481Z,103849.91
2019-02-24T17:02:43.582Z,103859.72
2019-02-24T17:05:12.472Z,103854.30
2019-02-24T17:07:41.770Z,103855.36
2019-02-24T17:10:12.388Z,103851.01
2019-02-24T17:12:40.565Z,103856.17
2019-02-24T17:15:10.734Z,103850.69
2019-02-24T17:17:38.902Z,103856.13
2019-02-24T17:20:10.061Z,103852.32
2019-02-24T17:22:38.456Z,103853.92
2019-02-24T17:25:07.013Z,103851.46
2019-02-24T17:27:35.101Z,103853.34
2019-02-24T17:30:03.635Z,103846.13
2019-02-24T17:32:32.269Z,103847.45
2019-02-24T17:35:00.434Z,103847.46
2019-02-24T17:37:28.528Z,103850.63
2019-02-24T17:39:56.629Z,103846.80
2019-02-24T17:42:24.858Z,103851.34
2019-02-24T17:44:53.083Z,103851.53
2019-02-24T17:47:21.157Z,103850.14
2019-02-24T17:49:51.055Z,103849.02
2019-02-24T17:52:19.460Z,103853.86
2019-02-24T17:54:47.540Z,103854.78
2019-02-24T17:57:15.737Z,103849.79
2019-02-24T17:59:43.854Z,103842.97
2019-02-24T18:02:11.943Z,103849.79
2019-02-24T18:04:40.058Z,103847.84
2019-02-24T18:07:09.080Z,103845.95
2019-02-24T18:09:37.827Z,103842.41
2019-02-24T18:12:05.917Z,103844.33
2019-02-24T18:14:34.047Z,103852.47
2019-02-24T18:17:02.118Z,103862.58
2019-02-24T18:19:30.278Z,103862.02
2019-02-24T18:21:58.463Z,103858.97
2019-02-24T18:24:26.565Z,103860.76
2019-02-24T18:26:54.912Z,103865.85
2019-02-24T18:29:23.034Z,103863.10
2019-02-24T18:31:51.231Z,103874.45
2019-02-24T18:34:19.376Z,103871.73
2019-02-24T18:36:47.432Z,103879.23
2019-02-24T18:39:15.624Z,103869.92
2019-02-24T18:41:43.693Z,103869.83
2019-02-24T18:44:11.792Z,103866.51
2019-02-24T18:46:39.982Z,103867.00
2019-02-24T18:49:09.273Z,103872.11
2019-02-24T18:51:37.429Z,103864.71
2019-02-24T18:54:05.599Z,103866.02
2019-02-24T18:56:33.711Z,103869.73
2019-02-24T18:59:01.856Z,103875.06
2019-02-24T19:01:29.999Z,103868.48
2019-02-24T19:03:58.376Z,103867.61
2019-02-24T19:06:27.381Z,103863.73
2019-02-24T19:08:55.452Z,103873.44
2019-02-24T19:11:24.039Z,103869.80
2019-02-24T19:13:52.104Z,103871.36
2019-02-24T19:16:20.344Z,103881.34
2019-02-24T19:18:48.430Z,103882.88
2019-02-24T19:21:16.856Z,103884.69
2019-02-24T19:23:45.303Z,103886.45
2019-02-24T19:26:13.440Z,103887.47
2019-02-24T19:28:41.539Z,103889.28
2019-02-24T19:31:09.753Z,103885.95
2019-02-24T19:33:37.929Z,103896.98
2019-02-24T19:36:06.112Z,103897.48
2019-02-24T19:38:34.465Z,103902.58
2019-02-24T19:41:02.566Z,103908.45
2019-02-24T19:43:30.665Z,103903.53
2019-02-24T19:45:58.805Z,103909.14
2019-02-24T19:48:26.932Z,103908.19
2019-02-24T19:50:55.158Z,103917.08
2019-02-24T19:53:23.207Z,103917.33
2019-02-24T19:55:51.321Z,103916.72
2019-02-24T19:58:19.431Z,103914.29
2019-02-24T20:00:47.620Z,103914.16
2019-02-24T20:03:15.676Z,103920.31
2019-02-24T20:05:43.767Z,103919.92
2019-02-24T20:08:12.060Z,103921.56
2019-02-24T20:10:40.357Z,103933.96
2019-02-24T20:13:08.495Z,103928.73
2019-02-24T20:15:36.593Z,103926.80
2019-02-24T20:18:04.672Z,103931.38
2019-02-24T20:20:33.262Z,103934.77
2019-02-24T20:23:02.157Z,103931.14
2019-02-24T20:25:30.741Z,103939.74
2019-02-24T20:27:59.088Z,103939.34
2019-02-24T20:30:27.209Z,103942.81
2019-02-24T20:32:55.275Z,103944.41
2019-02-24T20:35:23.436Z,103946.70
2019-02-24T20:37:51.757Z,103947.53
2019-02-24T20:40:19.921Z,103946.84
2019-02-24T20:42:47.979Z,103941.34
2019-02-24T20:45:18.150Z,103936.02
2019-02-24T20:47:46.222Z,103937.19
2019-02-24T20:50:16.160Z,103932.96
2019-02-24T20:52:44.325Z,103933.48
2019-02-24T20:55:12.696Z,103929.42
2019-02-24T20:57:40.980Z,103938.23
2019-02-24T21:00:17.754Z,103936.73
2019-02-24T21:02:45.980Z,103947.55
2019-02-24T21:05:14.453Z,103940.59
2019-02-24T21:07:42.763Z,103942.00
2019-02-24T21:10:11.713Z,103943.32
2019-02-24T21:12:41.355Z,103941.90
2019-02-24T21:15:11.509Z,103942.97
2019-02-24T21:17:39.734Z,103938.02
2019-02-24T21:20:14.957Z,103942.03
2019-02-24T21:22:43.694Z,103947.02
2019-02-24T21:25:12.918Z,103943.69
2019-02-24T21:27:41.108Z,103942.54
2019-02-24T21:30:12.255Z,103943.09
2019-02-24T21:32:40.449Z,103945.53
2019-02-24T21:35:08.697Z,103940.61
2019-02-24T21:37:37.077Z,103944.14
2019-02-24T21:40:05.611Z,103934.73
2019-02-24T21:42:33.740Z,103931.99
2019-02-24T21:45:02.243Z,103929.88
2019-02-24T21:47:30.369Z,103934.73
2019-02-24T21:49:58.524Z,103935.85
2019-02-24T21:52:26.966Z,103931.33
2019-02-24T21:54:55.072Z,103931.89
2019-02-24T21:57:23.168Z,103926.64
2019-02-24T21:59:51.539Z,103923.80
2019-02-24T22:02:19.996Z,103918.52
2019-02-24T22:04:48.390Z,103919.16
2019-02-24T22:07:16.622Z,103916.81
2019-02-24T22:09:44.709Z,103918.40
2019-02-24T22:12:12.830Z,103916.97
2019-02-24T22:14:41.003Z,103920.27
2019-02-24T22:17:09.084Z,103918.92
2019-02-24T22:19:37.170Z,103925.27
2019-02-24T22:22:05.296Z,103923.84
2019-02-24T22:24:33.385Z,103919.20
2019-02-24T22:27:01.559Z,103918.16
2019-02-24T22:29:29.665Z,103910.95
2019-02-24T22:31:57.751Z,103910.19
2019-02-24T22:34:26.140Z,103912.92
2019-02-24T22:36:54.524Z,103911.52
2019-02-24T22:39:23.472Z,103908.03
2019-02-24T22:41:52.092Z,103910.10
2019-02-24T22:44:20.181Z,103903.52
2019-02-24T22:46:48.382Z,103910.92
2019-02-24T22:49:16.489Z,103916.66
2019-02-24T22:51:45.260Z,103903.93
2019-02-24T22:54:13.358Z,103908.88
2019-02-24T22:56:41.832Z,103908.83
2019-02-24T22:59:09.928Z,103903.08
2019-02-24T23:01:39.636Z,103908.15
2019-02-24T23:04:10.973Z,103910.80
2019-02-24T23:06:39.330Z,103910.25
2019-02-24T23:09:15.045Z,103904.11
2019-02-24T23:11:43.177Z,103899.20
2019-02-24T23:14:11.614Z,103903.09
2019-02-24T23:16:39.725Z,103901.30
2019-02-24T23:19:07.843Z,103896.05
2019-02-24T23:21:35.924Z,103901.21
2019-02-24T23:24:04.580Z,103900.25
2019-02-24T23:26:33.911Z,103897.78
2019-02-24T23:29:02.344Z,103894.58
2019-02-24T23:31:30.500Z,103890.99
2019-02-24T23:33:59.056Z,103895.70
2019-02-24T23:36:27.135Z,103895.84
2019-02-24T23:38:55.348Z,103893.70
2019-02-24T23:41:23.536Z,103882.14
2019-02-24T23:43:51.649Z,103881.69
2019-02-24T23:46:20.061Z,103878.47
2019-02-24T23:48:48.529Z,103879.77
2019-02-24T23:51:16.822Z,103882.23
2019-02-24T23:53:44.986Z,103876.20
2019-02-24T23:56:13.199Z,103884.47
2019-02-24T23:58:41.780Z,103888.96
